Time;durP1;ratioP1;P1;durP2;ratioP2;P2;SDS_P1;SDS_P2;PMS_P1;PMS_P2;Temp;Humidity;BMP_temperature;BMP_pressure;BME280_temperature;BME280_humidity;BME280_pressure;Samples;Min_cycle;Max_cycle;Signal;HPM_P1;HPM_P2
2021/08/07 00:01:19;;;;;;;11.77;2.03;;;16.40;99.90;;;;;;6182789;23;20029;-86
2021/08/07 00:03:47;;;;;;;8.23;2.15;;;16.40;99.90;;;;;;6183313;23;20408;-87
2021/08/07 00:06:25;;;;;;;10.68;2.20;;;16.40;99.90;;;;;;6183069;23;20108;-86
2021/08/07 00:08:52;;;;;;;8.90;2.00;;;16.40;99.90;;;;;;6183639;23;20337;-87
2021/08/07 00:11:19;;;;;;;14.93;2.25;;;16.40;99.90;;;;;;6182659;23;20341;-87
2021/08/07 00:13:46;;;;;;;13.63;2.90;;;16.40;99.90;;;;;;6183299;23;20024;-86
2021/08/07 00:16:13;;;;;;;12.60;2.25;;;16.40;99.90;;;;;;6183137;23;20021;-87
2021/08/07 00:18:40;;;;;;;12.48;2.50;;;16.40;99.90;;;;;;6183974;23;20503;-87
2021/08/07 00:21:07;;;;;;;16.92;2.70;;;16.40;99.90;;;;;;6182506;23;20325;-87
2021/08/07 00:23:34;;;;;;;14.55;2.42;;;16.40;99.90;;;;;;6183417;23;20031;-87
2021/08/07 00:26:01;;;;;;;16.95;2.85;;;16.40;99.90;;;;;;6183164;23;20020;-87
2021/08/07 00:28:28;;;;;;;15.65;2.47;;;16.40;99.90;;;;;;6182844;23;20079;-87
2021/08/07 00:30:55;;;;;;;18.88;2.80;;;16.40;99.90;;;;;;6183604;23;20027;-87
2021/08/07 00:33:22;;;;;;;13.40;2.38;;;16.40;99.90;;;;;;6182439;23;20021;-87
2021/08/07 00:35:49;;;;;;;22.95;2.83;;;16.40;99.90;;;;;;6185033;23;20021;-87
2021/08/07 00:38:16;;;;;;;16.30;3.00;;;16.40;99.90;;;;;;6182555;23;20021;-87
2021/08/07 00:40:43;;;;;;;21.23;2.72;;;16.40;99.90;;;;;;6182973;23;20021;-87
2021/08/07 00:43:10;;;;;;;18.48;2.67;;;16.40;99.90;;;;;;6182731;23;20032;-87
2021/08/07 00:45:38;;;;;;;23.02;3.10;;;16.40;99.90;;;;;;6183355;23;20437;-87
2021/08/07 00:48:08;;;;;;;22.83;3.13;;;16.40;99.90;;;;;;6184397;23;20025;-86
2021/08/07 00:50:36;;;;;;;24.73;2.95;;;16.40;99.90;;;;;;6184645;23;20021;-86
2021/08/07 00:53:04;;;;;;;23.45;3.05;;;16.40;99.90;;;;;;6183071;23;20076;-87
2021/08/07 00:55:31;;;;;;;21.57;3.23;;;16.40;99.90;;;;;;6182901;23;20445;-87
2021/08/07 00:57:59;;;;;;;19.52;2.80;;;16.40;99.90;;;;;;6183167;23;20070;-86
2021/08/07 01:00:26;;;;;;;19.50;2.83;;;16.40;99.90;;;;;;6184216;23;20025;-87
2021/08/07 01:03:10;;;;;;;21.08;3.30;;;16.40;99.90;;;;;;6183542;23;20016;-87
2021/08/07 01:05:42;;;;;;;17.40;2.60;;;16.50;99.90;;;;;;6184053;23;20021;-87
2021/08/07 01:08:21;;;;;;;22.90;2.65;;;16.50;99.90;;;;;;6183360;23;20021;-86
2021/08/07 01:11:33;;;;;;;25.13;4.03;;;16.50;99.90;;;;;;6183482;23;20448;-86
2021/08/07 01:14:04;;;;;;;19.23;3.45;;;16.50;99.90;;;;;;6182241;23;20357;-86
2021/08/07 01:16:37;;;;;;;23.00;3.15;;;16.40;99.90;;;;;;6182420;23;20091;-86
2021/08/07 01:19:10;;;;;;;22.10;3.47;;;16.40;99.90;;;;;;6182653;23;20021;-86
2021/08/07 01:21:41;;;;;;;25.45;3.25;;;16.40;99.90;;;;;;6183017;23;20048;-86
2021/08/07 01:24:15;;;;;;;25.13;4.30;;;16.40;99.90;;;;;;6182458;23;20029;-86
2021/08/07 01:27:00;;;;;;;20.77;3.53;;;16.40;99.90;;;;;;6183412;23;20080;-86
2021/08/07 01:29:29;;;;;;;17.67;3.17;;;16.40;99.90;;;;;;6158196;23;20025;-86
2021/08/07 01:31:55;;;;;;;;;;;16.30;99.90;;;;;;6183584;23;20025;-86
2021/08/07 01:34:23;;;;;;;17.52;3.17;;;16.30;99.90;;;;;;6182496;23;19923;-86
2021/08/07 01:36:50;;;;;;;21.45;3.13;;;16.20;99.90;;;;;;6183250;23;20017;-86
2021/08/07 01:39:17;;;;;;;21.67;2.83;;;16.20;99.90;;;;;;6182570;23;20491;-86
2021/08/07 01:41:44;;;;;;;17.52;2.80;;;16.10;99.90;;;;;;6184635;23;20021;-86
2021/08/07 01:44:11;;;;;;;19.00;3.08;;;16.10;99.90;;;;;;6182294;23;20018;-86
2021/08/07 01:46:54;;;;;;;17.20;3.58;;;16.00;99.90;;;;;;6183149;23;20025;-86
2021/08/07 01:49:44;;;;;;;17.90;2.70;;;16.00;99.90;;;;;;6183987;23;20464;-86
2021/08/07 01:52:25;;;;;;;16.83;2.78;;;15.90;99.90;;;;;;6182264;23;20020;-86
2021/08/07 01:54:57;;;;;;;21.42;3.28;;;15.90;99.90;;;;;;6183468;23;20024;-86
2021/08/07 01:57:26;;;;;;;17.67;2.65;;;15.90;99.90;;;;;;6182274;23;20445;-86
2021/08/07 01:59:54;;;;;;;13.10;2.92;;;15.90;99.90;;;;;;6183535;23;20021;-86
2021/08/07 02:02:21;;;;;;;18.25;2.78;;;15.80;99.90;;;;;;6184674;23;20025;-86
2021/08/07 02:04:49;;;;;;;14.77;2.50;;;15.80;99.90;;;;;;6185116;23;20087;-86
2021/08/07 02:07:16;;;;;;;19.60;3.03;;;15.80;99.90;;;;;;6184239;23;20032;-86
2021/08/07 02:09:45;;;;;;;19.00;2.92;;;15.80;99.90;;;;;;6184982;23;20020;-86
2021/08/07 02:12:14;;;;;;;23.08;3.35;;;15.80;99.90;;;;;;6184107;23;20017;-86
2021/08/07 02:14:43;;;;;;;19.77;3.28;;;15.80;99.90;;;;;;6184695;23;20026;-86
2021/08/07 02:17:10;;;;;;;21.15;3.50;;;15.80;99.90;;;;;;6183914;23;20029;-86
2021/08/07 02:19:38;;;;;;;18.17;3.00;;;15.80;99.90;;;;;;6184673;23;20027;-86
2021/08/07 02:22:07;;;;;;;21.42;2.95;;;15.80;99.90;;;;;;6184183;23;20075;-86
2021/08/07 02:24:34;;;;;;;29.17;3.80;;;15.80;99.90;;;;;;6184654;23;20048;-86
2021/08/07 02:27:02;;;;;;;28.30;3.53;;;15.80;99.90;;;;;;6184777;23;20021;-86
2021/08/07 02:29:32;;;;;;;26.92;3.65;;;15.80;99.90;;;;;;6185585;23;20025;-86
2021/08/07 02:31:59;;;;;;;27.13;3.17;;;15.80;99.90;;;;;;6186169;23;20017;-86
2021/08/07 02:34:30;;;;;;;29.30;3.50;;;15.80;99.90;;;;;;6183927;23;20028;-86
2021/08/07 02:36:57;;;;;;;26.30;3.30;;;15.80;99.90;;;;;;6184375;23;20017;-86
2021/08/07 02:39:26;;;;;;;32.40;4.65;;;15.90;99.90;;;;;;6183817;23;20024;-86
2021/08/07 02:41:57;;;;;;;29.50;3.80;;;15.90;99.90;;;;;;6186214;23;20028;-86
2021/08/07 02:44:24;;;;;;;29.98;4.25;;;15.90;99.90;;;;;;6183649;23;21486;-86
2021/08/07 02:46:53;;;;;;;36.80;4.32;;;15.90;99.90;;;;;;6184178;23;20514;-87
2021/08/07 02:49:20;;;;;;;35.28;5.38;;;15.90;99.90;;;;;;6183770;23;20028;-86
2021/08/07 02:51:49;;;;;;;38.13;5.70;;;15.90;99.90;;;;;;6183982;23;20024;-86
2021/08/07 02:54:17;;;;;;;27.90;3.90;;;16.00;99.90;;;;;;6183189;23;20025;-86
2021/08/07 02:56:44;;;;;;;30.35;4.40;;;15.90;99.90;;;;;;6184537;23;20344;-87
2021/08/07 02:59:11;;;;;;;28.42;4.20;;;15.90;99.90;;;;;;6183239;23;20048;-86
2021/08/07 03:01:38;;;;;;;29.73;4.22;;;15.90;99.90;;;;;;6184441;23;20342;-87
2021/08/07 03:04:06;;;;;;;27.05;4.25;;;15.90;99.90;;;;;;6183622;23;20027;-86
2021/08/07 03:06:33;;;;;;;34.97;5.18;;;16.00;99.90;;;;;;6184163;23;20021;-86
2021/08/07 03:08:59;;;;;;;29.70;4.57;;;15.90;99.90;;;;;;6184211;23;20024;-86
2021/08/07 03:11:26;;;;;;;34.25;4.65;;;15.90;99.90;;;;;;6185203;23;20087;-86
2021/08/07 03:13:54;;;;;;;29.60;4.47;;;15.90;99.90;;;;;;6184149;23;20020;-86
2021/08/07 03:16:21;;;;;;;28.08;4.18;;;15.90;99.90;;;;;;6183613;23;20020;-86
2021/08/07 03:18:48;;;;;;;39.40;5.28;;;15.80;99.90;;;;;;6184368;23;20017;-86
2021/08/07 03:21:15;;;;;;;34.95;5.75;;;15.80;99.90;;;;;;6183392;23;20032;-86
2021/08/07 03:23:42;;;;;;;35.67;4.85;;;15.80;99.90;;;;;;6184458;23;20017;-86
2021/08/07 03:26:10;;;;;;;31.80;4.63;;;15.80;99.90;;;;;;6183125;23;20373;-86
2021/08/07 03:28:37;;;;;;;26.33;4.20;;;15.80;99.90;;;;;;6183905;23;20021;-87
2021/08/07 03:31:04;;;;;;;19.45;3.75;;;15.70;99.90;;;;;;6183157;23;20025;-86
2021/08/07 03:33:31;;;;;;;16.67;2.78;;;15.70;99.90;;;;;;6183895;23;20020;-86
2021/08/07 03:35:58;;;;;;;14.30;2.75;;;15.60;99.90;;;;;;6184526;23;20092;-86
2021/08/07 03:38:25;;;;;;;11.38;2.40;;;15.60;99.90;;;;;;6184824;23;20087;-87
2021/08/07 03:40:52;;;;;;;14.90;2.60;;;15.50;99.90;;;;;;6184351;23;20013;-86
2021/08/07 03:43:19;;;;;;;12.93;2.40;;;15.40;99.90;;;;;;6184917;23;20024;-87
2021/08/07 03:45:46;;;;;;;16.05;2.15;;;15.30;99.90;;;;;;6183817;23;20029;-86
2021/08/07 03:48:12;;;;;;;11.18;1.92;;;15.30;99.90;;;;;;6183085;23;20100;-86
2021/08/07 03:50:39;;;;;;;14.85;2.38;;;15.30;99.90;;;;;;6184232;23;20028;-86
2021/08/07 03:53:06;;;;;;;11.60;2.10;;;15.20;99.90;;;;;;6183302;23;20024;-86
2021/08/07 03:55:33;;;;;;;9.93;1.80;;;15.20;99.90;;;;;;6183267;23;20020;-86
2021/08/07 03:58:01;;;;;;;12.75;2.17;;;15.10;99.90;;;;;;6183904;23;20021;-87
2021/08/07 04:00:30;;;;;;;15.70;2.40;;;15.10;99.90;;;;;;6182917;23;20016;-86
2021/08/07 04:02:58;;;;;;;9.40;1.98;;;15.10;99.90;;;;;;6184038;23;20019;-86
2021/08/07 04:05:26;;;;;;;15.90;2.60;;;15.10;99.90;;;;;;6184790;23;20028;-86
2021/08/07 04:08:03;;;;;;;17.58;2.80;;;15.00;99.90;;;;;;6183338;23;20017;-86
2021/08/07 04:10:30;;;;;;;13.18;2.42;;;15.00;99.90;;;;;;6184508;23;20040;-87
2021/08/07 04:12:57;;;;;;;18.20;3.08;;;15.00;99.90;;;;;;6183437;23;20017;-87
2021/08/07 04:15:25;;;;;;;17.33;3.10;;;15.00;99.90;;;;;;6184361;23;20040;-87
2021/08/07 04:17:52;;;;;;;16.10;2.22;;;15.00;99.90;;;;;;6183238;23;20026;-86
2021/08/07 04:20:19;;;;;;;16.42;2.47;;;14.90;99.90;;;;;;6182238;23;20013;-86
2021/08/07 04:22:47;;;;;;;16.58;2.78;;;14.90;99.90;;;;;;6185414;23;20449;-86
2021/08/07 04:25:14;;;;;;;25.75;3.22;;;14.90;99.90;;;;;;6182690;23;20025;-87
2021/08/07 04:27:41;;;;;;;23.38;2.50;;;14.90;99.90;;;;;;6183023;23;20024;-86
2021/08/07 04:30:09;;;;;;;18.33;2.42;;;14.90;99.90;;;;;;6182840;23;20061;-87
2021/08/07 04:32:37;;;;;;;21.48;2.80;;;14.90;99.90;;;;;;6184051;23;20028;-86
2021/08/07 04:35:05;;;;;;;16.75;2.65;;;14.90;99.90;;;;;;6187371;23;20017;-87
2021/08/07 04:37:47;;;;;;;23.83;3.00;;;14.90;99.90;;;;;;6182731;23;20096;-86
2021/08/07 04:40:15;;;;;;;30.67;3.40;;;14.90;99.90;;;;;;6182320;23;20017;-86
2021/08/07 04:42:43;;;;;;;22.00;3.23;;;14.90;99.90;;;;;;6183547;23;20021;-86
2021/08/07 04:45:10;;;;;;;16.80;3.00;;;14.90;99.90;;;;;;6183085;23;20021;-86
2021/08/07 04:47:58;;;;;;;25.55;2.75;;;14.90;99.90;;;;;;6183529;23;20029;-87
2021/08/07 04:50:29;;;;;;;19.90;2.95;;;14.90;99.90;;;;;;6183947;23;21021;-87
2021/08/07 04:52:56;;;;;;;22.60;3.10;;;14.80;99.90;;;;;;6183469;23;20017;-86
2021/08/07 04:55:23;;;;;;;24.58;2.85;;;14.80;99.90;;;;;;6182609;23;20020;-86
2021/08/07 04:57:51;;;;;;;19.65;3.10;;;14.80;99.90;;;;;;6183278;23;20453;-85
2021/08/07 05:00:20;;;;;;;28.47;3.73;;;14.80;99.90;;;;;;6183894;23;20028;-87
2021/08/07 05:02:47;;;;;;;28.70;3.47;;;14.80;99.90;;;;;;6183550;23;20013;-86
2021/08/07 05:05:16;;;;;;;13.90;2.50;;;14.80;99.90;;;;;;6182205;23;20096;-86
2021/08/07 05:07:44;;;;;;;17.67;3.15;;;14.80;99.90;;;;;;6183210;23;20096;-86
2021/08/07 05:10:12;;;;;;;23.88;3.40;;;14.80;99.90;;;;;;6182400;23;20025;-87
2021/08/07 05:12:39;;;;;;;15.18;2.38;;;14.80;99.90;;;;;;6183261;23;20325;-86
2021/08/07 05:15:08;;;;;;;12.52;2.10;;;14.80;99.90;;;;;;6182292;23;20021;-87
2021/08/07 05:17:35;;;;;;;13.90;2.60;;;14.80;99.90;;;;;;6183479;23;20191;-87
2021/08/07 05:20:02;;;;;;;12.15;2.05;;;14.80;99.90;;;;;;6183425;23;20017;-86
2021/08/07 05:22:29;;;;;;;16.00;2.42;;;14.80;99.90;;;;;;6182716;23;20020;-86
2021/08/07 05:24:57;;;;;;;11.90;1.83;;;14.80;99.90;;;;;;6183194;23;20017;-86
2021/08/07 05:27:24;;;;;;;17.10;2.13;;;14.80;99.90;;;;;;6182317;23;20035;-87
2021/08/07 05:29:51;;;;;;;9.77;1.90;;;14.70;99.90;;;;;;6184405;23;20334;-87
2021/08/07 05:32:18;;;;;;;16.13;2.00;;;14.70;99.90;;;;;;6182049;23;20083;-87
2021/08/07 05:34:45;;;;;;;13.95;1.90;;;14.80;99.90;;;;;;6183398;23;20048;-87
2021/08/07 05:37:12;;;;;;;9.27;1.40;;;14.70;99.90;;;;;;6186012;23;20021;-87
2021/08/07 05:39:39;;;;;;;12.20;1.70;;;14.70;99.90;;;;;;6185000;23;20028;-87
2021/08/07 05:42:06;;;;;;;13.35;1.80;;;14.70;99.90;;;;;;6184731;23;20020;-86
2021/08/07 05:44:33;;;;;;;11.60;1.58;;;14.70;99.90;;;;;;6185011;23;20016;-86
2021/08/07 05:47:00;;;;;;;10.30;1.55;;;14.70;99.90;;;;;;6185268;23;20025;-86
2021/08/07 05:49:27;;;;;;;12.25;1.60;;;14.60;99.90;;;;;;6184091;23;20024;-86
2021/08/07 05:51:54;;;;;;;7.60;1.58;;;14.60;99.90;;;;;;6184837;23;20056;-86
2021/08/07 05:54:23;;;;;;;9.52;1.75;;;14.70;99.90;;;;;;6183979;23;20044;-87
2021/08/07 05:56:50;;;;;;;13.98;1.75;;;14.60;99.90;;;;;;6184872;23;20025;-87
2021/08/07 05:59:17;;;;;;;10.43;1.30;;;14.60;99.90;;;;;;6183808;23;20071;-86
2021/08/07 06:01:43;;;;;;;10.50;1.50;;;14.70;99.90;;;;;;6184817;23;20021;-86
2021/08/07 06:04:11;;;;;;;9.93;1.50;;;14.80;99.90;;;;;;6184102;23;20303;-87
2021/08/07 06:06:38;;;;;;;9.85;1.58;;;14.70;99.90;;;;;;6185247;23;20021;-87
2021/08/07 06:09:05;;;;;;;9.98;2.15;;;14.80;99.90;;;;;;6183993;23;20095;-86
2021/08/07 06:11:31;;;;;;;11.75;1.65;;;14.80;99.90;;;;;;6185073;23;20013;-87
2021/08/07 06:13:59;;;;;;;8.77;1.30;;;14.80;99.90;;;;;;6186224;23;20016;-87
2021/08/07 06:16:26;;;;;;;13.07;1.75;;;14.80;99.90;;;;;;6184116;23;20021;-87
2021/08/07 06:18:53;;;;;;;7.45;1.40;;;14.80;99.90;;;;;;6184410;23;20021;-86
2021/08/07 06:21:20;;;;;;;11.85;1.50;;;14.80;99.90;;;;;;6184006;23;20025;-86
2021/08/07 06:23:47;;;;;;;12.18;1.90;;;14.80;99.90;;;;;;6184739;23;20025;-87
2021/08/07 06:26:15;;;;;;;9.15;1.30;;;14.80;99.90;;;;;;6183767;23;20029;-87
2021/08/07 06:28:43;;;;;;;7.35;1.45;;;14.70;99.90;;;;;;6184744;23;20024;-87
2021/08/07 06:31:10;;;;;;;6.75;1.40;;;14.80;99.90;;;;;;6183076;23;20028;-87
2021/08/07 06:33:37;;;;;;;7.97;1.85;;;14.70;99.90;;;;;;6186301;23;20017;-87
2021/08/07 06:36:04;;;;;;;11.93;1.55;;;14.70;99.90;;;;;;6185452;23;20321;-87
2021/08/07 06:38:31;;;;;;;5.18;1.50;;;14.80;99.90;;;;;;6184741;23;20020;-87
2021/08/07 06:40:58;;;;;;;6.40;1.10;;;14.90;99.90;;;;;;6184756;23;20028;-87
2021/08/07 06:43:25;;;;;;;9.35;1.10;;;14.90;99.90;;;;;;6183599;23;20440;-87
2021/08/07 06:45:52;;;;;;;7.50;1.33;;;15.00;99.90;;;;;;6185893;23;20051;-87
2021/08/07 06:48:20;;;;;;;6.10;1.20;;;15.00;99.90;;;;;;6183305;23;20376;-87
2021/08/07 06:50:47;;;;;;;5.35;1.00;;;15.10;99.90;;;;;;6184729;23;20083;-87
2021/08/07 06:53:14;;;;;;;6.22;0.90;;;15.20;99.90;;;;;;6184035;23;20040;-88
2021/08/07 06:55:41;;;;;;;7.45;1.30;;;15.30;99.90;;;;;;6184623;23;20298;-86
2021/08/07 06:58:08;;;;;;;6.95;0.90;;;15.30;99.90;;;;;;6184938;23;20017;-87
2021/08/07 07:00:36;;;;;;;6.78;1.15;;;15.30;99.90;;;;;;6184334;23;20356;-86
2021/08/07 07:03:04;;;;;;;;;;;15.40;99.90;;;;;;6184872;23;20041;-86
2021/08/07 07:05:33;;;;;;;4.38;1.02;;;15.40;99.90;;;;;;6183654;23;20236;-86
2021/08/07 07:08:00;;;;;;;;;;;15.50;99.90;;;;;;6184492;23;20012;-86
2021/08/07 07:10:28;;;;;;;5.75;1.00;;;15.50;99.90;;;;;;6184683;23;19916;-86
2021/08/07 07:12:56;;;;;;;4.95;1.13;;;15.60;99.90;;;;;;6185521;23;20028;-86
2021/08/07 07:15:23;;;;;;;5.38;1.25;;;15.60;99.90;;;;;;6183302;23;20032;-86
2021/08/07 07:17:51;;;;;;;4.85;1.00;;;15.70;99.90;;;;;;6183993;23;20024;-86
2021/08/07 07:20:22;;;;;;;5.70;0.98;;;15.80;99.90;;;;;;6182708;23;20043;-88
2021/08/07 07:22:50;;;;;;;6.55;0.93;;;15.90;99.90;;;;;;6184187;23;20021;-88
2021/08/07 07:25:18;;;;;;;5.93;1.13;;;15.90;99.90;;;;;;6183572;23;20021;-88
2021/08/07 07:27:46;;;;;;;9.15;1.35;;;16.00;99.90;;;;;;6184380;23;20030;-88
2021/08/07 07:30:14;;;;;;;4.45;0.98;;;16.10;99.90;;;;;;6183197;23;20045;-88
2021/08/07 07:32:42;;;;;;;5.93;1.17;;;16.10;99.90;;;;;;6195211;23;20021;-88
2021/08/07 07:35:09;;;;;;;6.35;1.60;;;16.20;99.90;;;;;;6182221;23;20256;-88
2021/08/07 07:37:37;;;;;;;6.45;1.20;;;16.30;99.90;;;;;;6183096;23;20024;-86
2021/08/07 07:40:06;;;;;;;7.70;1.15;;;16.40;99.90;;;;;;6184012;23;20017;-86
2021/08/07 07:42:33;;;;;;;8.30;1.27;;;16.50;99.90;;;;;;6182754;23;20017;-85
2021/08/07 07:45:00;;;;;;;6.20;1.38;;;16.50;99.90;;;;;;6185311;23;20024;-85
2021/08/07 07:47:27;;;;;;;6.28;1.80;;;16.70;99.90;;;;;;6183548;23;20027;-85
2021/08/07 07:49:54;;;;;;;7.32;2.00;;;16.70;99.90;;;;;;6183657;23;20013;-85
2021/08/07 07:52:21;;;;;;;8.85;1.70;;;16.80;99.90;;;;;;6184652;23;20017;-87
2021/08/07 07:54:48;;;;;;;8.18;1.60;;;16.80;99.90;;;;;;6183750;23;20025;-85
2021/08/07 07:57:15;;;;;;;7.43;1.77;;;16.80;99.90;;;;;;6183084;23;20024;-85
2021/08/07 07:59:42;;;;;;;6.60;1.42;;;16.90;99.90;;;;;;6183017;23;20028;-85
2021/08/07 08:02:09;;;;;;;6.93;1.45;;;16.90;99.90;;;;;;6181077;23;20021;-85
2021/08/07 08:04:36;;;;;;;6.93;2.10;;;16.90;99.90;;;;;;6182119;23;20017;-85
2021/08/07 08:07:03;;;;;;;8.68;1.70;;;17.00;99.90;;;;;;6180284;23;20023;-85
2021/08/07 08:09:30;;;;;;;8.73;1.85;;;17.00;99.90;;;;;;6182056;23;20088;-85
2021/08/07 08:11:57;;;;;;;8.98;1.70;;;17.00;99.90;;;;;;6180322;23;20424;-85
2021/08/07 08:14:25;;;;;;;7.90;1.85;;;17.10;99.90;;;;;;6179666;23;20017;-85
2021/08/07 08:16:52;;;;;;;7.28;1.60;;;17.30;99.90;;;;;;6180918;23;20033;-85
2021/08/07 08:19:19;;;;;;;10.88;2.45;;;17.40;99.90;;;;;;6180734;23;20017;-85
2021/08/07 08:21:46;;;;;;;9.57;1.75;;;17.60;99.90;;;;;;6180575;23;20024;-85
2021/08/07 08:24:13;;;;;;;7.35;2.03;;;17.60;99.90;;;;;;6179870;23;20017;-85
2021/08/07 08:26:41;;;;;;;11.60;2.50;;;17.70;99.90;;;;;;6182534;23;20025;-85
2021/08/07 08:29:08;;;;;;;12.07;2.15;;;17.60;99.90;;;;;;6179672;23;20017;-85
2021/08/07 08:31:35;;;;;;;7.60;2.20;;;17.60;99.90;;;;;;6182395;23;20048;-86
2021/08/07 08:34:03;;;;;;;11.75;2.08;;;17.40;99.90;;;;;;6180968;23;20048;-85
2021/08/07 08:36:30;;;;;;;11.98;2.40;;;17.30;99.90;;;;;;6180173;23;20383;-85
2021/08/07 08:38:57;;;;;;;10.95;2.50;;;17.20;99.90;;;;;;6180753;23;20116;-85
2021/08/07 08:41:25;;;;;;;10.75;2.65;;;17.20;99.90;;;;;;6180021;23;20032;-85
2021/08/07 08:43:51;;;;;;;11.30;2.40;;;17.30;99.90;;;;;;6180477;23;20024;-85
2021/08/07 08:46:22;;;;;;;10.88;2.50;;;17.40;99.90;;;;;;6181483;23;20017;-85
2021/08/07 08:48:49;;;;;;;10.13;2.40;;;17.60;99.90;;;;;;6181855;23;20032;-85
2021/08/07 08:51:18;;;;;;;9.02;2.47;;;17.70;99.90;;;;;;6179531;23;20448;-85
2021/08/07 08:53:45;;;;;;;10.05;2.80;;;17.70;99.90;;;;;;6181358;23;20028;-85
2021/08/07 08:56:13;;;;;;;11.95;2.92;;;17.70;99.90;;;;;;6179594;23;20021;-85
2021/08/07 08:58:40;;;;;;;12.07;2.80;;;17.60;99.90;;;;;;6180545;23;20024;-85
2021/08/07 09:01:08;;;;;;;12.43;2.40;;;17.50;99.90;;;;;;6179582;23;20093;-85
2021/08/07 09:03:36;;;;;;;12.93;2.80;;;17.60;99.90;;;;;;6179715;23;20727;-85
2021/08/07 09:06:06;;;;;;;12.95;3.15;;;17.60;99.90;;;;;;6182036;23;20088;-85
2021/08/07 09:08:33;;;;;;;9.93;2.90;;;17.70;99.90;;;;;;6182272;23;20433;-85
2021/08/07 09:11:16;;;;;;;8.85;2.17;;;17.60;99.90;;;;;;6180253;23;20017;-87
2021/08/07 09:13:43;;;;;;;5.25;2.00;;;17.40;99.90;;;;;;6179277;23;20453;-86
2021/08/07 09:16:11;;;;;;;5.78;2.15;;;17.20;99.90;;;;;;6179514;23;20310;-85
2021/08/07 09:18:38;;;;;;;7.15;1.77;;;17.00;99.90;;;;;;6180291;23;20096;-86
2021/08/07 09:21:17;;;;;;;5.25;1.50;;;16.90;99.90;;;;;;6180773;23;20021;-85
2021/08/07 09:23:47;;;;;;;4.10;1.42;;;16.90;99.90;;;;;;6180943;23;20452;-85
2021/08/07 09:26:20;;;;;;;6.95;1.50;;;17.00;99.90;;;;;;6179110;23;20021;-85
2021/08/07 09:28:51;;;;;;;4.72;1.33;;;17.10;99.90;;;;;;6181009;23;20029;-85
2021/08/07 09:31:19;;;;;;;5.55;1.48;;;17.20;99.90;;;;;;6179091;23;20444;-85
2021/08/07 09:33:46;;;;;;;5.10;1.42;;;17.50;99.90;;;;;;6180562;23;20088;-85
2021/08/07 09:36:13;;;;;;;6.43;1.40;;;17.70;99.90;;;;;;6180717;23;20461;-86
2021/08/07 09:38:46;;;;;;;10.27;1.48;;;17.80;99.90;;;;;;6180819;23;20036;-85
2021/08/07 09:41:14;;;;;;;5.78;1.48;;;17.90;99.90;;;;;;6179814;23;20025;-86
2021/08/07 09:43:47;;;;;;;7.00;1.83;;;17.80;99.90;;;;;;6180249;23;20029;-86
2021/08/07 09:46:17;;;;;;;7.82;1.60;;;17.80;99.90;;;;;;6179405;23;20024;-85
2021/08/07 09:48:47;;;;;;;9.77;1.98;;;17.60;99.90;;;;;;6180298;23;20020;-86
2021/08/07 09:51:21;;;;;;;9.25;2.22;;;17.50;99.90;;;;;;6181078;23;20328;-86
2021/08/07 09:54:06;;;;;;;8.98;1.88;;;17.50;99.90;;;;;;6180181;23;20072;-86
2021/08/07 09:57:01;;;;;;;7.32;1.98;;;17.70;99.90;;;;;;6178875;23;20579;-86
2021/08/07 09:59:35;;;;;;;10.52;2.55;;;17.80;99.90;;;;;;6176411;23;20017;-85
2021/08/07 10:02:31;;;;;;;9.60;2.30;;;18.00;99.90;;;;;;6180613;23;20039;-86
2021/08/07 10:04:59;;;;;;;11.45;2.35;;;17.90;99.90;;;;;;6179682;23;20025;-85
2021/08/07 10:07:27;;;;;;;8.68;2.53;;;17.90;99.90;;;;;;6178194;23;20014;-85
2021/08/07 10:09:55;;;;;;;6.33;1.90;;;17.70;99.90;;;;;;6178509;23;20021;-86
2021/08/07 10:12:23;;;;;;;6.70;1.60;;;17.70;99.90;;;;;;6178701;23;20457;-86
2021/08/07 10:14:51;;;;;;;9.75;2.28;;;17.70;99.90;;;;;;6180368;23;20025;-86
2021/08/07 10:17:23;;;;;;;11.30;2.13;;;17.80;99.90;;;;;;6179313;23;20016;-86
2021/08/07 10:19:51;;;;;;;8.93;2.60;;;17.80;99.90;;;;;;6180418;23;20036;-86
2021/08/07 10:22:20;;;;;;;12.10;2.80;;;17.80;99.90;;;;;;6179075;23;20017;-86
2021/08/07 10:24:48;;;;;;;10.40;2.05;;;17.90;99.90;;;;;;6181932;23;20025;-86
2021/08/07 10:27:19;;;;;;;9.23;1.92;;;18.10;99.90;;;;;;6180329;23;20024;-85
2021/08/07 10:29:50;;;;;;;9.43;1.80;;;18.30;99.90;;;;;;6181322;23;20040;-85
2021/08/07 10:32:17;;;;;;;10.95;2.03;;;18.60;99.90;;;;;;6182506;23;20017;-86
2021/08/07 10:34:48;;;;;;;7.60;1.90;;;18.70;99.90;;;;;;6183553;23;20021;-86
2021/08/07 10:37:15;;;;;;;10.50;2.47;;;18.80;99.90;;;;;;6180869;23;20444;-86
2021/08/07 10:39:42;;;;;;;8.85;2.17;;;18.80;99.90;;;;;;6182192;23;20449;-85
2021/08/07 10:42:14;;;;;;;11.05;2.50;;;18.80;99.90;;;;;;6181353;23;20023;-88
2021/08/07 10:44:46;;;;;;;12.38;2.85;;;18.70;99.90;;;;;;6159154;23;20104;-88
2021/08/07 10:47:33;;;;;;;9.68;2.60;;;18.70;99.90;;;;;;6161169;23;20025;-90
2021/08/07 10:50:28;;;;;;;12.95;2.60;;;18.60;99.90;;;;;;6168931;23;20017;-88
2021/08/07 10:52:58;;;;;;;10.60;2.50;;;18.60;99.90;;;;;;6204505;23;20021;-88
2021/08/07 10:55:45;;;;;;;12.65;2.70;;;18.80;99.90;;;;;;6177633;23;20021;-86
2021/08/07 10:58:36;;;;;;;10.63;2.78;;;18.80;99.90;;;;;;6179193;23;20457;-86
2021/08/07 11:01:25;;;;;;;18.15;2.85;;;18.80;99.90;;;;;;6183866;23;20021;-86
2021/08/07 11:04:02;;;;;;;8.90;2.40;;;18.70;99.90;;;;;;6182639;23;20021;-84
2021/08/07 11:06:38;;;;;;;14.13;2.75;;;18.70;99.90;;;;;;6183084;23;20024;-84
2021/08/07 11:09:14;;;;;;;12.52;2.83;;;18.70;99.90;;;;;;6181986;23;20321;-86
2021/08/07 11:11:42;;;;;;;12.25;3.00;;;18.80;99.90;;;;;;6181321;23;20330;-86
2021/08/07 11:14:21;;;;;;;14.90;3.80;;;18.70;99.90;;;;;;6180396;23;20021;-86
2021/08/07 11:17:04;;;;;;;14.27;3.30;;;18.70;99.90;;;;;;6181193;23;20264;-86
2021/08/07 11:19:48;;;;;;;15.27;3.03;;;18.60;99.90;;;;;;6179886;23;20522;-85
2021/08/07 11:22:41;;;;;;;21.20;3.42;;;18.70;99.90;;;;;;6181366;23;20362;-87
2021/08/07 11:25:11;;;;;;;13.13;2.70;;;18.80;99.90;;;;;;6181426;23;20028;-87
2021/08/07 11:27:48;;;;;;;11.32;2.90;;;18.90;99.90;;;;;;6184014;23;20469;-86
2021/08/07 11:30:16;;;;;;;12.23;2.85;;;19.00;99.90;;;;;;6182479;23;20021;-86
2021/08/07 11:33:06;;;;;;;16.77;3.35;;;19.20;99.90;;;;;;6183974;23;20085;-87
2021/08/07 11:35:34;;;;;;;14.77;3.58;;;19.30;99.90;;;;;;6182829;23;20131;-86
2021/08/07 11:38:10;;;;;;;16.88;3.20;;;19.30;99.90;;;;;;6183788;23;20024;-87
2021/08/07 11:40:40;;;;;;;17.67;3.80;;;19.20;99.90;;;;;;6182964;23;20060;-87
2021/08/07 11:43:17;;;;;;;19.80;3.55;;;19.10;99.90;;;;;;6182806;23;20017;-88
2021/08/07 11:45:47;;;;;;;18.10;4.35;;;18.70;99.90;;;;;;6183173;23;20013;-87
2021/08/07 11:48:35;;;;;;;21.02;4.15;;;18.50;99.90;;;;;;6185144;23;20025;-86
2021/08/07 11:51:03;;;;;;;15.75;3.75;;;18.40;99.90;;;;;;6184813;23;20021;-87
2021/08/07 11:53:32;;;;;;;11.90;3.15;;;18.30;99.90;;;;;;6184684;23;20025;-87
2021/08/07 11:56:01;;;;;;;16.73;3.42;;;18.20;99.90;;;;;;6184935;23;20025;-87
2021/08/07 11:58:31;;;;;;;10.55;2.75;;;18.10;99.90;;;;;;6182833;23;20358;-86
2021/08/07 12:01:03;;;;;;;15.57;3.45;;;18.10;99.90;;;;;;6183584;23;20021;-86
2021/08/07 12:03:44;;;;;;;14.05;2.83;;;18.10;99.90;;;;;;6183106;23;20309;-87
2021/08/07 12:06:13;;;;;;;14.13;2.90;;;18.10;99.90;;;;;;6182244;23;20017;-87
2021/08/07 12:08:41;;;;;;;12.57;3.10;;;18.10;99.90;;;;;;6186643;23;20024;-86
2021/08/07 12:11:10;;;;;;;14.57;2.72;;;18.10;99.90;;;;;;6195809;23;20053;-87
2021/08/07 12:13:40;;;;;;;14.30;2.50;;;18.10;99.90;;;;;;6196932;23;20327;-87
2021/08/07 12:16:16;;;;;;;10.00;2.58;;;18.10;99.90;;;;;;6196725;23;20459;-86
2021/08/07 12:19:20;;;;;;;9.82;2.30;;;18.10;99.90;;;;;;6183485;23;20099;-87
2021/08/07 12:21:50;;;;;;;14.52;2.80;;;18.00;99.90;;;;;;6122007;23;20457;-88
2021/08/07 12:24:23;;;;;;;11.02;2.80;;;17.80;99.90;;;;;;6122816;23;20018;-83
2021/08/07 12:26:55;;;;;;;18.95;3.25;;;17.70;99.90;;;;;;6124452;23;20022;-86
2021/08/07 12:29:24;;;;;;;14.57;3.80;;;17.70;99.90;;;;;;6122194;23;20078;-86
2021/08/07 12:31:54;;;;;;;11.20;2.47;;;17.70;99.90;;;;;;6120304;23;20025;-86
2021/08/07 12:34:26;;;;;;;14.55;2.90;;;17.70;99.90;;;;;;6121204;23;20021;-86
2021/08/07 12:37:05;;;;;;;12.77;2.88;;;17.60;99.90;;;;;;6122116;23;20028;-86
2021/08/07 12:39:45;;;;;;;;;;;17.70;99.90;;;;;;6122656;23;20026;-86
2021/08/07 12:42:23;;;;;;;10.77;2.60;;;17.70;99.90;;;;;;6122913;23;19952;-85
2021/08/07 12:45:03;;;;;;;14.13;3.45;;;17.80;99.90;;;;;;6123155;23;20026;-87
2021/08/07 12:47:32;;;;;;;16.35;3.05;;;17.90;99.90;;;;;;6122080;23;20044;-83
2021/08/07 12:50:28;;;;;;;13.25;2.92;;;18.10;99.90;;;;;;6121462;23;20437;-87
2021/08/07 12:52:57;;;;;;;15.38;2.88;;;18.20;99.90;;;;;;6098124;23;20022;-87
2021/08/07 12:55:27;;;;;;;18.75;3.92;;;18.20;99.90;;;;;;6146814;23;20025;-87